sensor_id;sensor_type;location;lat;lon;timestamp;P1;durP1;ratioP1;P2;durP2;ratioP2
25922;SDS011;13725;51.170;4.442;2022-07-29T00:01:27;3.75;;;1.85;;
25922;SDS011;13725;51.170;4.442;2022-07-29T00:07:41;4.53;;;1.70;;
25922;SDS011;13725;51.170;4.442;2022-07-29T00:13:54;7.15;;;1.58;;
25922;SDS011;13725;51.170;4.442;2022-07-29T00:20:07;7.50;;;2.08;;
25922;SDS011;13725;51.170;4.442;2022-07-29T00:26:21;5.70;;;2.00;;
25922;SDS011;13725;51.170;4.442;2022-07-29T00:32:34;4.82;;;1.50;;
25922;SDS011;13725;51.170;4.442;2022-07-29T00:38:49;6.53;;;2.05;;
25922;SDS011;13725;51.170;4.442;2022-07-29T00:45:03;2.88;;;1.73;;
25922;SDS011;13725;51.170;4.442;2022-07-29T00:51:17;6.03;;;1.77;;
25922;SDS011;13725;51.170;4.442;2022-07-29T01:01:17;3.10;;;1.50;;
25922;SDS011;13725;51.170;4.442;2022-07-29T01:07:30;4.90;;;1.83;;
25922;SDS011;13725;51.170;4.442;2022-07-29T01:13:46;3.97;;;1.98;;
25922;SDS011;13725;51.170;4.442;2022-07-29T01:30:44;2.63;;;1.83;;
25922;SDS011;13725;51.170;4.442;2022-07-29T01:37:14;3.60;;;1.90;;
25922;SDS011;13725;51.170;4.442;2022-07-29T01:44:10;5.57;;;2.35;;
25922;SDS011;13725;51.170;4.442;2022-07-29T01:50:17;6.80;;;2.00;;
25922;SDS011;13725;51.170;4.442;2022-07-29T02:00:29;7.88;;;1.67;;
25922;SDS011;13725;51.170;4.442;2022-07-29T02:06:44;5.20;;;1.58;;
25922;SDS011;13725;51.170;4.442;2022-07-29T02:13:02;4.55;;;1.67;;
25922;SDS011;13725;51.170;4.442;2022-07-29T02:19:17;5.70;;;1.90;;
25922;SDS011;13725;51.170;4.442;2022-07-29T02:25:32;2.42;;;1.60;;
25922;SDS011;13725;51.170;4.442;2022-07-29T02:31:46;5.28;;;1.65;;
25922;SDS011;13725;51.170;4.442;2022-07-29T02:38:02;3.42;;;1.70;;
25922;SDS011;13725;51.170;4.442;2022-07-29T02:48:26;3.50;;;1.52;;
25922;SDS011;13725;51.170;4.442;2022-07-29T02:54:46;6.75;;;1.75;;
25922;SDS011;13725;51.170;4.442;2022-07-29T03:01:16;4.50;;;1.45;;
25922;SDS011;13725;51.170;4.442;2022-07-29T03:07:34;25.58;;;1.88;;
25922;SDS011;13725;51.170;4.442;2022-07-29T03:13:49;11.93;;;2.20;;
25922;SDS011;13725;51.170;4.442;2022-07-29T03:20:03;6.07;;;1.73;;
25922;SDS011;13725;51.170;4.442;2022-07-29T03:26:20;3.50;;;1.13;;
25922;SDS011;13725;51.170;4.442;2022-07-29T03:32:33;3.80;;;1.80;;
25922;SDS011;13725;51.170;4.442;2022-07-29T03:38:47;6.78;;;1.70;;
25922;SDS011;13725;51.170;4.442;2022-07-29T03:45:02;6.03;;;1.73;;
25922;SDS011;13725;51.170;4.442;2022-07-29T03:51:19;2.85;;;1.65;;
25922;SDS011;13725;51.170;4.442;2022-07-29T03:57:34;3.83;;;1.63;;
25922;SDS011;13725;51.170;4.442;2022-07-29T04:03:48;4.32;;;1.83;;
25922;SDS011;13725;51.170;4.442;2022-07-29T04:10:01;3.47;;;1.50;;
25922;SDS011;13725;51.170;4.442;2022-07-29T04:16:14;4.55;;;1.90;;
25922;SDS011;13725;51.170;4.442;2022-07-29T04:22:27;3.13;;;1.98;;
25922;SDS011;13725;51.170;4.442;2022-07-29T04:28:40;5.88;;;2.10;;
25922;SDS011;13725;51.170;4.442;2022-07-29T04:34:55;3.88;;;2.00;;
25922;SDS011;13725;51.170;4.442;2022-07-29T04:41:08;3.58;;;2.05;;
25922;SDS011;13725;51.170;4.442;2022-07-29T04:47:21;4.20;;;1.80;;
25922;SDS011;13725;51.170;4.442;2022-07-29T04:53:34;9.70;;;2.25;;
25922;SDS011;13725;51.170;4.442;2022-07-29T04:59:48;8.40;;;2.05;;
25922;SDS011;13725;51.170;4.442;2022-07-29T05:09:48;7.68;;;2.10;;
25922;SDS011;13725;51.170;4.442;2022-07-29T05:16:01;11.95;;;2.40;;
25922;SDS011;13725;51.170;4.442;2022-07-29T05:22:15;4.97;;;2.00;;
25922;SDS011;13725;51.170;4.442;2022-07-29T05:28:28;4.72;;;2.30;;
25922;SDS011;13725;51.170;4.442;2022-07-29T05:35:10;4.88;;;2.20;;
25922;SDS011;13725;51.170;4.442;2022-07-29T05:41:24;2.92;;;1.80;;
25922;SDS011;13725;51.170;4.442;2022-07-29T05:47:37;10.10;;;2.17;;
25922;SDS011;13725;51.170;4.442;2022-07-29T05:53:50;9.70;;;2.75;;
25922;SDS011;13725;51.170;4.442;2022-07-29T06:00:04;6.35;;;2.22;;
25922;SDS011;13725;51.170;4.442;2022-07-29T06:10:12;5.20;;;2.88;;
25922;SDS011;13725;51.170;4.442;2022-07-29T06:16:25;8.48;;;2.22;;
25922;SDS011;13725;51.170;4.442;2022-07-29T06:22:38;6.97;;;2.00;;
25922;SDS011;13725;51.170;4.442;2022-07-29T06:28:51;7.05;;;2.78;;
25922;SDS011;13725;51.170;4.442;2022-07-29T06:35:04;9.30;;;2.40;;
25922;SDS011;13725;51.170;4.442;2022-07-29T06:41:18;3.80;;;2.25;;
25922;SDS011;13725;51.170;4.442;2022-07-29T06:47:31;5.43;;;2.30;;
25922;SDS011;13725;51.170;4.442;2022-07-29T06:53:44;4.40;;;2.30;;
25922;SDS011;13725;51.170;4.442;2022-07-29T06:59:59;2.60;;;1.92;;
25922;SDS011;13725;51.170;4.442;2022-07-29T07:06:12;4.75;;;2.00;;
25922;SDS011;13725;51.170;4.442;2022-07-29T07:12:26;5.07;;;2.22;;
25922;SDS011;13725;51.170;4.442;2022-07-29T07:18:39;2.72;;;2.00;;
25922;SDS011;13725;51.170;4.442;2022-07-29T07:24:52;6.03;;;1.90;;
25922;SDS011;13725;51.170;4.442;2022-07-29T07:31:05;6.88;;;2.00;;
25922;SDS011;13725;51.170;4.442;2022-07-29T07:37:18;5.78;;;1.95;;
25922;SDS011;13725;51.170;4.442;2022-07-29T07:43:32;5.15;;;1.90;;
25922;SDS011;13725;51.170;4.442;2022-07-29T07:49:46;5.50;;;2.05;;
25922;SDS011;13725;51.170;4.442;2022-07-29T07:55:59;8.88;;;2.83;;
25922;SDS011;13725;51.170;4.442;2022-07-29T08:02:13;3.60;;;1.65;;
25922;SDS011;13725;51.170;4.442;2022-07-29T08:08:27;5.70;;;1.42;;
25922;SDS011;13725;51.170;4.442;2022-07-29T08:18:28;5.75;;;1.48;;
25922;SDS011;13725;51.170;4.442;2022-07-29T08:24:43;3.45;;;1.52;;
25922;SDS011;13725;51.170;4.442;2022-07-29T08:30:59;6.10;;;1.50;;
25922;SDS011;13725;51.170;4.442;2022-07-29T08:37:12;1.80;;;1.13;;
25922;SDS011;13725;51.170;4.442;2022-07-29T08:43:25;3.03;;;1.40;;
25922;SDS011;13725;51.170;4.442;2022-07-29T08:49:39;5.95;;;1.30;;
25922;SDS011;13725;51.170;4.442;2022-07-29T08:55:52;2.72;;;1.23;;
25922;SDS011;13725;51.170;4.442;2022-07-29T09:02:10;2.88;;;1.70;;
25922;SDS011;13725;51.170;4.442;2022-07-29T09:08:32;3.40;;;1.67;;
25922;SDS011;13725;51.170;4.442;2022-07-29T09:18:45;5.65;;;1.30;;
25922;SDS011;13725;51.170;4.442;2022-07-29T09:24:58;2.70;;;1.10;;
25922;SDS011;13725;51.170;4.442;2022-07-29T09:31:12;2.30;;;1.02;;
25922;SDS011;13725;51.170;4.442;2022-07-29T09:37:26;1.55;;;1.13;;
25922;SDS011;13725;51.170;4.442;2022-07-29T09:43:40;2.95;;;1.20;;
25922;SDS011;13725;51.170;4.442;2022-07-29T09:50:05;3.28;;;1.45;;
25922;SDS011;13725;51.170;4.442;2022-07-29T09:56:18;4.88;;;1.20;;
25922;SDS011;13725;51.170;4.442;2022-07-29T10:02:32;2.40;;;1.20;;
25922;SDS011;13725;51.170;4.442;2022-07-29T10:08:46;3.63;;;1.25;;
25922;SDS011;13725;51.170;4.442;2022-07-29T10:15:02;2.42;;;1.00;;
25922;SDS011;13725;51.170;4.442;2022-07-29T10:21:15;4.65;;;1.40;;
25922;SDS011;13725;51.170;4.442;2022-07-29T10:27:30;9.13;;;1.23;;
25922;SDS011;13725;51.170;4.442;2022-07-29T10:46:48;1.98;;;1.15;;
25922;SDS011;13725;51.170;4.442;2022-07-29T10:53:02;3.75;;;1.33;;
25922;SDS011;13725;51.170;4.442;2022-07-29T11:16:18;3.78;;;0.80;;
25922;SDS011;13725;51.170;4.442;2022-07-29T11:22:36;5.63;;;1.38;;
25922;SDS011;13725;51.170;4.442;2022-07-29T11:45:49;2.20;;;1.17;;
25922;SDS011;13725;51.170;4.442;2022-07-29T11:52:03;3.03;;;1.40;;
25922;SDS011;13725;51.170;4.442;2022-07-29T11:58:16;3.10;;;1.45;;
25922;SDS011;13725;51.170;4.442;2022-07-29T12:15:22;3.72;;;1.80;;
25922;SDS011;13725;51.170;4.442;2022-07-29T12:32:20;1.95;;;1.38;;
25922;SDS011;13725;51.170;4.442;2022-07-29T12:38:34;4.97;;;1.45;;
25922;SDS011;13725;51.170;4.442;2022-07-29T12:48:35;4.25;;;1.25;;
25922;SDS011;13725;51.170;4.442;2022-07-29T12:54:49;2.92;;;1.38;;
25922;SDS011;13725;51.170;4.442;2022-07-29T13:01:10;2.53;;;1.25;;
25922;SDS011;13725;51.170;4.442;2022-07-29T13:07:32;1.98;;;1.27;;
25922;SDS011;13725;51.170;4.442;2022-07-29T13:17:39;5.13;;;1.67;;
25922;SDS011;13725;51.170;4.442;2022-07-29T13:23:55;6.22;;;2.13;;
25922;SDS011;13725;51.170;4.442;2022-07-29T13:30:08;5.18;;;1.48;;
25922;SDS011;13725;51.170;4.442;2022-07-29T13:36:22;3.63;;;1.58;;
25922;SDS011;13725;51.170;4.442;2022-07-29T13:42:36;5.22;;;2.10;;
25922;SDS011;13725;51.170;4.442;2022-07-29T13:48:50;4.20;;;1.70;;
25922;SDS011;13725;51.170;4.442;2022-07-29T13:55:04;5.85;;;1.70;;
25922;SDS011;13725;51.170;4.442;2022-07-29T14:01:19;7.68;;;1.60;;
25922;SDS011;13725;51.170;4.442;2022-07-29T14:07:32;3.80;;;2.05;;
25922;SDS011;13725;51.170;4.442;2022-07-29T14:17:33;6.13;;;1.55;;
25922;SDS011;13725;51.170;4.442;2022-07-29T14:23:46;4.30;;;1.50;;
25922;SDS011;13725;51.170;4.442;2022-07-29T14:30:00;4.55;;;1.50;;
25922;SDS011;13725;51.170;4.442;2022-07-29T14:36:25;6.35;;;1.73;;
25922;SDS011;13725;51.170;4.442;2022-07-29T14:42:40;7.55;;;2.22;;
25922;SDS011;13725;51.170;4.442;2022-07-29T14:48:54;4.88;;;1.98;;
25922;SDS011;13725;51.170;4.442;2022-07-29T14:55:07;3.53;;;1.83;;
25922;SDS011;13725;51.170;4.442;2022-07-29T15:01:21;7.80;;;1.85;;
25922;SDS011;13725;51.170;4.442;2022-07-29T15:07:34;3.97;;;1.73;;
25922;SDS011;13725;51.170;4.442;2022-07-29T15:13:47;6.55;;;2.10;;
25922;SDS011;13725;51.170;4.442;2022-07-29T15:20:01;5.38;;;1.70;;
25922;SDS011;13725;51.170;4.442;2022-07-29T15:26:15;5.25;;;2.15;;
25922;SDS011;13725;51.170;4.442;2022-07-29T15:32:28;3.10;;;1.88;;
25922;SDS011;13725;51.170;4.442;2022-07-29T15:38:42;5.57;;;2.30;;
25922;SDS011;13725;51.170;4.442;2022-07-29T15:44:57;8.02;;;2.05;;
25922;SDS011;13725;51.170;4.442;2022-07-29T15:51:10;8.48;;;2.50;;
25922;SDS011;13725;51.170;4.442;2022-07-29T15:57:23;7.25;;;2.40;;
25922;SDS011;13725;51.170;4.442;2022-07-29T16:03:37;5.00;;;2.25;;
25922;SDS011;13725;51.170;4.442;2022-07-29T16:09:51;7.28;;;2.17;;
25922;SDS011;13725;51.170;4.442;2022-07-29T16:16:04;4.82;;;1.75;;
25922;SDS011;13725;51.170;4.442;2022-07-29T16:22:16;4.68;;;2.35;;
25922;SDS011;13725;51.170;4.442;2022-07-29T16:28:30;9.73;;;4.40;;
25922;SDS011;13725;51.170;4.442;2022-07-29T16:38:31;5.47;;;1.52;;
25922;SDS011;13725;51.170;4.442;2022-07-29T16:44:44;6.38;;;1.70;;
25922;SDS011;13725;51.170;4.442;2022-07-29T16:50:57;9.77;;;1.50;;
25922;SDS011;13725;51.170;4.442;2022-07-29T16:57:10;7.57;;;1.77;;
25922;SDS011;13725;51.170;4.442;2022-07-29T17:03:24;3.85;;;1.55;;
25922;SDS011;13725;51.170;4.442;2022-07-29T17:09:37;8.90;;;1.80;;
25922;SDS011;13725;51.170;4.442;2022-07-29T17:15:50;5.20;;;2.80;;
25922;SDS011;13725;51.170;4.442;2022-07-29T17:22:04;7.88;;;2.40;;
25922;SDS011;13725;51.170;4.442;2022-07-29T17:28:19;3.33;;;1.80;;
25922;SDS011;13725;51.170;4.442;2022-07-29T17:38:20;5.25;;;2.20;;
25922;SDS011;13725;51.170;4.442;2022-07-29T17:44:33;4.53;;;2.40;;
25922;SDS011;13725;51.170;4.442;2022-07-29T17:50:47;6.28;;;1.95;;
25922;SDS011;13725;51.170;4.442;2022-07-29T17:57:01;9.30;;;2.03;;
25922;SDS011;13725;51.170;4.442;2022-07-29T18:03:15;11.93;;;3.15;;
25922;SDS011;13725;51.170;4.442;2022-07-29T18:09:29;6.72;;;3.00;;
25922;SDS011;13725;51.170;4.442;2022-07-29T18:15:43;6.32;;;2.05;;
25922;SDS011;13725;51.170;4.442;2022-07-29T18:21:57;1.95;;;1.10;;
25922;SDS011;13725;51.170;4.442;2022-07-29T18:28:11;4.32;;;1.60;;
25922;SDS011;13725;51.170;4.442;2022-07-29T18:34:25;2.83;;;1.40;;
25922;SDS011;13725;51.170;4.442;2022-07-29T18:40:38;6.57;;;1.70;;
25922;SDS011;13725;51.170;4.442;2022-07-29T18:46:53;2.55;;;1.77;;
25922;SDS011;13725;51.170;4.442;2022-07-29T18:53:07;5.82;;;1.70;;
25922;SDS011;13725;51.170;4.442;2022-07-29T18:59:20;4.38;;;1.40;;
25922;SDS011;13725;51.170;4.442;2022-07-29T19:05:33;3.25;;;1.48;;
25922;SDS011;13725;51.170;4.442;2022-07-29T19:11:46;6.45;;;1.70;;
25922;SDS011;13725;51.170;4.442;2022-07-29T19:21:47;4.20;;;1.63;;
25922;SDS011;13725;51.170;4.442;2022-07-29T19:28:01;3.60;;;1.60;;
25922;SDS011;13725;51.170;4.442;2022-07-29T19:30:27;5.75;;;1.95;;
25922;SDS011;13725;51.170;4.442;2022-07-29T19:36:41;6.28;;;1.70;;
25922;SDS011;13725;51.170;4.442;2022-07-29T19:42:54;4.40;;;1.70;;
25922;SDS011;13725;51.170;4.442;2022-07-29T19:49:08;2.97;;;1.60;;
25922;SDS011;13725;51.170;4.442;2022-07-29T19:55:28;8.77;;;2.40;;
25922;SDS011;13725;51.170;4.442;2022-07-29T20:01:42;4.72;;;1.83;;
25922;SDS011;13725;51.170;4.442;2022-07-29T20:07:56;8.55;;;2.33;;
25922;SDS011;13725;51.170;4.442;2022-07-29T20:14:10;7.55;;;2.00;;
25922;SDS011;13725;51.170;4.442;2022-07-29T20:24:11;3.65;;;1.73;;
25922;SDS011;13725;51.170;4.442;2022-07-29T20:30:25;7.63;;;2.03;;
25922;SDS011;13725;51.170;4.442;2022-07-29T20:36:38;8.70;;;2.67;;
25922;SDS011;13725;51.170;4.442;2022-07-29T20:42:53;5.57;;;2.17;;
25922;SDS011;13725;51.170;4.442;2022-07-29T20:49:07;10.05;;;2.92;;
25922;SDS011;13725;51.170;4.442;2022-07-29T20:55:20;7.15;;;2.35;;
25922;SDS011;13725;51.170;4.442;2022-07-29T21:01:33;11.15;;;2.83;;
25922;SDS011;13725;51.170;4.442;2022-07-29T21:07:47;6.32;;;2.40;;
25922;SDS011;13725;51.170;4.442;2022-07-29T21:14:00;8.13;;;2.50;;
25922;SDS011;13725;51.170;4.442;2022-07-29T21:24:01;10.40;;;2.90;;
25922;SDS011;13725;51.170;4.442;2022-07-29T21:30:15;6.20;;;3.22;;
25922;SDS011;13725;51.170;4.442;2022-07-29T21:36:30;9.10;;;2.90;;
25922;SDS011;13725;51.170;4.442;2022-07-29T21:42:44;9.15;;;2.30;;
25922;SDS011;13725;51.170;4.442;2022-07-29T21:48:58;6.53;;;2.50;;
25922;SDS011;13725;51.170;4.442;2022-07-29T21:55:11;8.60;;;2.38;;
25922;SDS011;13725;51.170;4.442;2022-07-29T22:01:25;7.65;;;2.65;;
25922;SDS011;13725;51.170;4.442;2022-07-29T22:07:38;10.48;;;3.00;;
25922;SDS011;13725;51.170;4.442;2022-07-29T22:13:52;7.75;;;3.05;;
25922;SDS011;13725;51.170;4.442;2022-07-29T22:23:53;8.02;;;3.67;;
25922;SDS011;13725;51.170;4.442;2022-07-29T22:30:07;10.27;;;3.65;;
25922;SDS011;13725;51.170;4.442;2022-07-29T22:36:21;12.07;;;3.60;;
25922;SDS011;13725;51.170;4.442;2022-07-29T22:42:34;9.05;;;3.00;;
25922;SDS011;13725;51.170;4.442;2022-07-29T22:48:48;13.32;;;3.58;;
25922;SDS011;13725;51.170;4.442;2022-07-29T22:55:01;9.07;;;3.97;;
25922;SDS011;13725;51.170;4.442;2022-07-29T23:01:16;13.43;;;4.75;;
25922;SDS011;13725;51.170;4.442;2022-07-29T23:07:29;10.77;;;4.65;;
25922;SDS011;13725;51.170;4.442;2022-07-29T23:13:42;10.75;;;4.85;;
25922;SDS011;13725;51.170;4.442;2022-07-29T23:19:55;10.90;;;6.00;;
25922;SDS011;13725;51.170;4.442;2022-07-29T23:26:16;14.52;;;5.82;;
25922;SDS011;13725;51.170;4.442;2022-07-29T23:32:30;12.13;;;5.75;;
25922;SDS011;13725;51.170;4.442;2022-07-29T23:38:43;11.07;;;6.03;;
25922;SDS011;13725;51.170;4.442;2022-07-29T23:44:58;8.63;;;5.97;;
25922;SDS011;13725;51.170;4.442;2022-07-29T23:51:11;12.25;;;5.35;;
25922;SDS011;13725;51.170;4.442;2022-07-29T23:57:24;14.48;;;6.03;;
